sensor_id;sensor_type;location;lat;lon;timestamp;P1;durP1;ratioP1;P2;durP2;ratioP2
75285;SDS011;63879;46.064;14.532;2023-02-12T07:01:10;51.20;;;26.45;;
75285;SDS011;63879;46.064;14.532;2023-02-12T07:03:40;46.75;;;23.88;;
75285;SDS011;63879;46.064;14.532;2023-02-12T07:06:06;49.42;;;27.25;;
75285;SDS011;63879;46.064;14.532;2023-02-12T07:08:32;46.45;;;26.45;;
75285;SDS011;63879;46.064;14.532;2023-02-12T07:10:57;46.10;;;25.93;;
75285;SDS011;63879;46.064;14.532;2023-02-12T07:13:23;44.57;;;24.43;;
75285;SDS011;63879;46.064;14.532;2023-02-12T07:15:48;46.35;;;25.08;;
75285;SDS011;63879;46.064;14.532;2023-02-12T07:18:13;53.13;;;27.03;;
75285;SDS011;63879;46.064;14.532;2023-02-12T07:20:39;51.13;;;26.83;;
75285;SDS011;63879;46.064;14.532;2023-02-12T07:23:04;47.53;;;25.70;;
75285;SDS011;63879;46.064;14.532;2023-02-12T07:25:29;48.07;;;26.10;;
75285;SDS011;63879;46.064;14.532;2023-02-12T07:27:55;47.23;;;26.23;;
75285;SDS011;63879;46.064;14.532;2023-02-12T07:30:20;46.87;;;26.63;;
75285;SDS011;63879;46.064;14.532;2023-02-12T07:32:45;48.40;;;24.83;;
75285;SDS011;63879;46.064;14.532;2023-02-12T07:35:11;51.85;;;25.38;;
75285;SDS011;63879;46.064;14.532;2023-02-12T07:37:36;46.45;;;25.80;;
75285;SDS011;63879;46.064;14.532;2023-02-12T07:40:01;47.77;;;25.13;;
75285;SDS011;63879;46.064;14.532;2023-02-12T07:42:27;42.35;;;23.98;;
75285;SDS011;63879;46.064;14.532;2023-02-12T07:44:54;44.47;;;23.58;;
75285;SDS011;63879;46.064;14.532;2023-02-12T07:47:19;47.67;;;24.90;;
75285;SDS011;63879;46.064;14.532;2023-02-12T07:49:44;40.10;;;22.80;;
75285;SDS011;63879;46.064;14.532;2023-02-12T07:52:10;45.40;;;24.03;;
75285;SDS011;63879;46.064;14.532;2023-02-12T07:54:35;43.50;;;24.48;;
75285;SDS011;63879;46.064;14.532;2023-02-12T07:57:00;47.80;;;24.50;;
75285;SDS011;63879;46.064;14.532;2023-02-12T07:59:26;44.38;;;25.38;;
75285;SDS011;63879;46.064;14.532;2023-02-12T08:01:52;49.75;;;27.40;;
75285;SDS011;63879;46.064;14.532;2023-02-12T08:04:19;48.58;;;27.25;;
75285;SDS011;63879;46.064;14.532;2023-02-12T08:06:46;46.15;;;25.50;;
75285;SDS011;63879;46.064;14.532;2023-02-12T08:09:14;49.33;;;27.15;;
75285;SDS011;63879;46.064;14.532;2023-02-12T08:11:42;51.22;;;28.75;;
75285;SDS011;63879;46.064;14.532;2023-02-12T08:14:09;50.42;;;26.65;;
75285;SDS011;63879;46.064;14.532;2023-02-12T08:16:36;48.95;;;27.65;;
75285;SDS011;63879;46.064;14.532;2023-02-12T08:19:02;51.80;;;29.10;;
75285;SDS011;63879;46.064;14.532;2023-02-12T08:21:27;55.97;;;30.40;;
75285;SDS011;63879;46.064;14.532;2023-02-12T08:23:53;55.03;;;30.45;;
75285;SDS011;63879;46.064;14.532;2023-02-12T08:26:21;51.00;;;29.30;;
75285;SDS011;63879;46.064;14.532;2023-02-12T08:28:49;50.05;;;30.08;;
75285;SDS011;63879;46.064;14.532;2023-02-12T08:31:39;54.25;;;32.58;;
75285;SDS011;63879;46.064;14.532;2023-02-12T08:34:04;51.83;;;29.48;;
75285;SDS011;63879;46.064;14.532;2023-02-12T08:36:34;51.17;;;29.48;;
75285;SDS011;63879;46.064;14.532;2023-02-12T08:39:01;57.47;;;32.17;;
75285;SDS011;63879;46.064;14.532;2023-02-12T08:41:28;64.05;;;34.50;;
75285;SDS011;63879;46.064;14.532;2023-02-12T08:43:57;65.35;;;35.45;;
75285;SDS011;63879;46.064;14.532;2023-02-12T08:46:25;54.53;;;29.35;;
75285;SDS011;63879;46.064;14.532;2023-02-12T08:48:54;56.55;;;30.88;;
75285;SDS011;63879;46.064;14.532;2023-02-12T08:51:22;59.60;;;33.20;;
75285;SDS011;63879;46.064;14.532;2023-02-12T08:53:51;58.78;;;31.80;;
75285;SDS011;63879;46.064;14.532;2023-02-12T08:56:17;62.10;;;34.55;;
75285;SDS011;63879;46.064;14.532;2023-02-12T08:58:43;61.47;;;34.67;;
75285;SDS011;63879;46.064;14.532;2023-02-12T09:01:12;66.18;;;36.67;;
75285;SDS011;63879;46.064;14.532;2023-02-12T09:03:40;60.03;;;33.55;;
75285;SDS011;63879;46.064;14.532;2023-02-12T09:06:05;57.10;;;31.45;;
75285;SDS011;63879;46.064;14.532;2023-02-12T09:08:32;54.90;;;30.20;;
75285;SDS011;63879;46.064;14.532;2023-02-12T09:10:57;59.58;;;33.83;;
75285;SDS011;63879;46.064;14.532;2023-02-12T09:13:22;66.22;;;33.67;;
75285;SDS011;63879;46.064;14.532;2023-02-12T09:15:48;57.38;;;34.03;;
75285;SDS011;63879;46.064;14.532;2023-02-12T09:18:13;58.27;;;31.33;;
75285;SDS011;63879;46.064;14.532;2023-02-12T09:20:40;52.78;;;29.65;;
75285;SDS011;63879;46.064;14.532;2023-02-12T09:23:07;56.63;;;30.58;;
75285;SDS011;63879;46.064;14.532;2023-02-12T09:25:33;52.40;;;31.52;;
75285;SDS011;63879;46.064;14.532;2023-02-12T09:28:01;57.67;;;32.35;;
75285;SDS011;63879;46.064;14.532;2023-02-12T09:30:27;56.40;;;28.67;;
75285;SDS011;63879;46.064;14.532;2023-02-12T09:32:53;57.50;;;29.65;;
75285;SDS011;63879;46.064;14.532;2023-02-12T09:35:19;51.65;;;30.38;;
75285;SDS011;63879;46.064;14.532;2023-02-12T09:37:44;46.55;;;27.10;;
75285;SDS011;63879;46.064;14.532;2023-02-12T09:40:15;50.15;;;26.90;;
75285;SDS011;63879;46.064;14.532;2023-02-12T09:45:16;53.03;;;29.10;;
75285;SDS011;63879;46.064;14.532;2023-02-12T09:50:49;49.72;;;29.65;;
75285;SDS011;63879;46.064;14.532;2023-02-12T09:53:18;46.25;;;29.60;;
75285;SDS011;63879;46.064;14.532;2023-02-12T09:55:45;52.13;;;27.50;;
75285;SDS011;63879;46.064;14.532;2023-02-12T09:58:15;43.95;;;27.02;;
75285;SDS011;63879;46.064;14.532;2023-02-12T10:00:47;47.22;;;28.15;;
75285;SDS011;63879;46.064;14.532;2023-02-12T10:03:14;47.65;;;29.77;;
75285;SDS011;63879;46.064;14.532;2023-02-12T10:05:42;46.42;;;28.02;;
75285;SDS011;63879;46.064;14.532;2023-02-12T10:11:14;46.25;;;27.17;;
75285;SDS011;63879;46.064;14.532;2023-02-12T10:19:12;46.80;;;29.27;;
75285;SDS011;63879;46.064;14.532;2023-02-12T10:21:52;47.15;;;29.58;;
75285;SDS011;63879;46.064;14.532;2023-02-12T10:24:39;45.75;;;29.42;;
75285;SDS011;63879;46.064;14.532;2023-02-12T10:27:16;42.97;;;28.30;;
75285;SDS011;63879;46.064;14.532;2023-02-12T10:29:57;45.25;;;27.30;;
75285;SDS011;63879;46.064;14.532;2023-02-12T10:32:26;46.03;;;28.73;;
75285;SDS011;63879;46.064;14.532;2023-02-12T10:34:54;49.17;;;27.33;;
75285;SDS011;63879;46.064;14.532;2023-02-12T10:40:03;47.75;;;29.45;;
75285;SDS011;63879;46.064;14.532;2023-02-12T10:42:37;47.53;;;27.92;;
75285;SDS011;63879;46.064;14.532;2023-02-12T10:45:03;44.97;;;28.77;;
75285;SDS011;63879;46.064;14.532;2023-02-12T10:47:29;43.70;;;25.13;;
75285;SDS011;63879;46.064;14.532;2023-02-12T10:49:58;38.87;;;23.33;;
75285;SDS011;63879;46.064;14.532;2023-02-12T11:00:23;43.07;;;22.00;;
75285;SDS011;63879;46.064;14.532;2023-02-12T11:05:35;34.63;;;22.30;;
75285;SDS011;63879;46.064;14.532;2023-02-12T11:08:02;31.67;;;19.02;;
75285;SDS011;63879;46.064;14.532;2023-02-12T11:10:29;33.53;;;20.88;;
75285;SDS011;63879;46.064;14.532;2023-02-12T11:12:56;34.53;;;22.45;;
75285;SDS011;63879;46.064;14.532;2023-02-12T11:15:26;36.75;;;23.98;;
75285;SDS011;63879;46.064;14.532;2023-02-12T11:18:02;31.05;;;20.58;;
75285;SDS011;63879;46.064;14.532;2023-02-12T11:20:33;32.85;;;22.02;;
75285;SDS011;63879;46.064;14.532;2023-02-12T11:23:03;34.08;;;20.15;;
75285;SDS011;63879;46.064;14.532;2023-02-12T11:25:31;32.30;;;22.13;;
75285;SDS011;63879;46.064;14.532;2023-02-12T11:28:04;33.42;;;20.30;;
75285;SDS011;63879;46.064;14.532;2023-02-12T11:30:45;33.40;;;21.17;;
75285;SDS011;63879;46.064;14.532;2023-02-12T11:33:20;33.58;;;19.20;;
75285;SDS011;63879;46.064;14.532;2023-02-12T11:36:10;32.75;;;20.48;;
75285;SDS011;63879;46.064;14.532;2023-02-12T11:38:48;30.58;;;19.02;;
75285;SDS011;63879;46.064;14.532;2023-02-12T11:43:53;23.23;;;13.73;;
75285;SDS011;63879;46.064;14.532;2023-02-12T11:46:25;23.40;;;15.82;;
75285;SDS011;63879;46.064;14.532;2023-02-12T11:48:52;22.05;;;15.13;;
75285;SDS011;63879;46.064;14.532;2023-02-12T11:51:24;25.33;;;15.57;;
75285;SDS011;63879;46.064;14.532;2023-02-12T11:53:53;24.30;;;16.70;;
75285;SDS011;63879;46.064;14.532;2023-02-12T11:56:24;27.20;;;16.10;;
75285;SDS011;63879;46.064;14.532;2023-02-12T11:58:50;22.42;;;14.13;;
75285;SDS011;63879;46.064;14.532;2023-02-12T12:03:59;25.73;;;15.57;;
75285;SDS011;63879;46.064;14.532;2023-02-12T12:06:47;28.67;;;15.75;;
75285;SDS011;63879;46.064;14.532;2023-02-12T12:09:27;23.90;;;14.65;;
75285;SDS011;63879;46.064;14.532;2023-02-12T12:15:04;25.73;;;17.95;;
75285;SDS011;63879;46.064;14.532;2023-02-12T12:21:22;23.08;;;13.45;;
75285;SDS011;63879;46.064;14.532;2023-02-12T12:23:54;22.73;;;15.77;;
75285;SDS011;63879;46.064;14.532;2023-02-12T12:26:26;25.73;;;15.63;;
75285;SDS011;63879;46.064;14.532;2023-02-12T12:31:46;26.20;;;15.85;;
75285;SDS011;63879;46.064;14.532;2023-02-12T12:34:19;24.17;;;15.75;;
75285;SDS011;63879;46.064;14.532;2023-02-12T12:39:30;21.08;;;12.48;;
75285;SDS011;63879;46.064;14.532;2023-02-12T12:53:50;20.83;;;12.98;;
75285;SDS011;63879;46.064;14.532;2023-02-12T12:56:42;19.27;;;13.00;;
75285;SDS011;63879;46.064;14.532;2023-02-12T13:16:09;23.83;;;14.80;;
75285;SDS011;63879;46.064;14.532;2023-02-12T13:26:58;19.30;;;13.27;;
75285;SDS011;63879;46.064;14.532;2023-02-12T13:32:25;18.98;;;13.15;;
75285;SDS011;63879;46.064;14.532;2023-02-12T13:34:53;21.10;;;12.80;;
75285;SDS011;63879;46.064;14.532;2023-02-12T13:37:23;18.55;;;13.10;;
75285;SDS011;63879;46.064;14.532;2023-02-12T13:39:54;17.35;;;12.60;;
75285;SDS011;63879;46.064;14.532;2023-02-12T13:45:11;17.25;;;12.23;;
75285;SDS011;63879;46.064;14.532;2023-02-12T13:50:44;19.65;;;11.85;;
75285;SDS011;63879;46.064;14.532;2023-02-12T13:56:12;17.35;;;11.25;;
75285;SDS011;63879;46.064;14.532;2023-02-12T13:58:58;17.88;;;10.52;;
75285;SDS011;63879;46.064;14.532;2023-02-12T14:07:03;17.95;;;10.27;;
75285;SDS011;63879;46.064;14.532;2023-02-12T14:12:14;22.27;;;10.40;;
75285;SDS011;63879;46.064;14.532;2023-02-12T14:17:52;13.95;;;8.70;;
75285;SDS011;63879;46.064;14.532;2023-02-12T14:20:40;13.80;;;8.98;;
75285;SDS011;63879;46.064;14.532;2023-02-12T14:23:27;12.88;;;9.63;;
75285;SDS011;63879;46.064;14.532;2023-02-12T14:25:59;20.30;;;11.07;;
75285;SDS011;63879;46.064;14.532;2023-02-12T14:33:41;20.67;;;12.55;;
75285;SDS011;63879;46.064;14.532;2023-02-12T14:41:32;23.43;;;14.73;;
75285;SDS011;63879;46.064;14.532;2023-02-12T14:46:47;23.52;;;14.57;;
75285;SDS011;63879;46.064;14.532;2023-02-12T14:49:23;27.35;;;16.27;;
75285;SDS011;63879;46.064;14.532;2023-02-12T14:54:36;23.63;;;13.93;;
75285;SDS011;63879;46.064;14.532;2023-02-12T14:57:06;21.30;;;14.00;;
75285;SDS011;63879;46.064;14.532;2023-02-12T14:59:36;31.10;;;15.88;;
75285;SDS011;63879;46.064;14.532;2023-02-12T15:02:04;23.65;;;12.68;;
75285;SDS011;63879;46.064;14.532;2023-02-12T15:04:31;24.98;;;14.93;;
75285;SDS011;63879;46.064;14.532;2023-02-12T15:07:08;23.40;;;14.90;;
75285;SDS011;63879;46.064;14.532;2023-02-12T15:12:14;26.10;;;14.15;;
75285;SDS011;63879;46.064;14.532;2023-02-12T15:14:44;21.40;;;12.27;;
75285;SDS011;63879;46.064;14.532;2023-02-12T15:17:16;18.65;;;12.23;;
75285;SDS011;63879;46.064;14.532;2023-02-12T15:19:49;21.17;;;13.75;;
75285;SDS011;63879;46.064;14.532;2023-02-12T15:24:44;17.88;;;11.43;;
75285;SDS011;63879;46.064;14.532;2023-02-12T15:27:11;17.83;;;9.73;;
75285;SDS011;63879;46.064;14.532;2023-02-12T15:29:48;16.45;;;10.38;;
75285;SDS011;63879;46.064;14.532;2023-02-12T15:32:26;14.68;;;9.13;;
75285;SDS011;63879;46.064;14.532;2023-02-12T15:34:52;15.75;;;7.90;;
75285;SDS011;63879;46.064;14.532;2023-02-12T15:37:23;14.13;;;7.43;;
75285;SDS011;63879;46.064;14.532;2023-02-12T15:39:51;11.90;;;6.55;;
75285;SDS011;63879;46.064;14.532;2023-02-12T15:42:24;10.02;;;6.13;;
75285;SDS011;63879;46.064;14.532;2023-02-12T15:45:30;11.95;;;6.72;;
75285;SDS011;63879;46.064;14.532;2023-02-12T15:50:25;9.30;;;5.28;;
75285;SDS011;63879;46.064;14.532;2023-02-12T15:52:52;9.18;;;5.70;;
75285;SDS011;63879;46.064;14.532;2023-02-12T15:55:18;8.27;;;5.97;;
75285;SDS011;63879;46.064;14.532;2023-02-12T15:57:55;10.98;;;6.15;;
75285;SDS011;63879;46.064;14.532;2023-02-12T16:00:30;9.52;;;6.22;;
75285;SDS011;63879;46.064;14.532;2023-02-12T16:02:56;12.50;;;5.82;;
75285;SDS011;63879;46.064;14.532;2023-02-12T16:05:22;8.27;;;5.78;;
75285;SDS011;63879;46.064;14.532;2023-02-12T16:07:47;9.73;;;6.10;;
75285;SDS011;63879;46.064;14.532;2023-02-12T16:10:14;8.82;;;5.47;;
75285;SDS011;63879;46.064;14.532;2023-02-12T16:12:41;7.43;;;5.28;;
75285;SDS011;63879;46.064;14.532;2023-02-12T16:15:29;8.32;;;4.75;;
75285;SDS011;63879;46.064;14.532;2023-02-12T16:17:54;11.00;;;4.70;;
75285;SDS011;63879;46.064;14.532;2023-02-12T16:20:23;10.20;;;6.28;;
75285;SDS011;63879;46.064;14.532;2023-02-12T16:22:51;8.13;;;6.03;;
75285;SDS011;63879;46.064;14.532;2023-02-12T16:25:18;7.78;;;4.78;;
75285;SDS011;63879;46.064;14.532;2023-02-12T16:28:28;8.70;;;5.22;;
75285;SDS011;63879;46.064;14.532;2023-02-12T16:30:42;8.57;;;4.88;;
75285;SDS011;63879;46.064;14.532;2023-02-12T16:36:01;8.57;;;4.85;;
75285;SDS011;63879;46.064;14.532;2023-02-12T16:43:42;12.73;;;7.55;;
75285;SDS011;63879;46.064;14.532;2023-02-12T16:46:09;10.32;;;6.10;;
75285;SDS011;63879;46.064;14.532;2023-02-12T16:48:42;10.10;;;7.10;;
75285;SDS011;63879;46.064;14.532;2023-02-12T16:51:22;12.18;;;6.53;;
75285;SDS011;63879;46.064;14.532;2023-02-12T16:53:50;11.43;;;6.25;;
75285;SDS011;63879;46.064;14.532;2023-02-12T16:56:18;10.60;;;5.53;;
75285;SDS011;63879;46.064;14.532;2023-02-12T16:58:46;14.00;;;6.95;;
75285;SDS011;63879;46.064;14.532;2023-02-12T17:01:21;11.73;;;7.13;;
75285;SDS011;63879;46.064;14.532;2023-02-12T17:03:53;10.27;;;6.60;;
75285;SDS011;63879;46.064;14.532;2023-02-12T17:06:20;8.93;;;5.63;;
75285;SDS011;63879;46.064;14.532;2023-02-12T17:08:46;11.02;;;5.93;;
75285;SDS011;63879;46.064;14.532;2023-02-12T17:11:12;10.98;;;6.47;;
75285;SDS011;63879;46.064;14.532;2023-02-12T17:13:40;11.20;;;6.15;;
75285;SDS011;63879;46.064;14.532;2023-02-12T17:16:05;9.53;;;4.67;;
75285;SDS011;63879;46.064;14.532;2023-02-12T17:18:30;14.88;;;6.80;;
75285;SDS011;63879;46.064;14.532;2023-02-12T17:21:00;9.25;;;5.40;;
75285;SDS011;63879;46.064;14.532;2023-02-12T17:23:28;11.02;;;6.40;;
75285;SDS011;63879;46.064;14.532;2023-02-12T17:25:53;9.35;;;5.75;;
75285;SDS011;63879;46.064;14.532;2023-02-12T17:28:19;12.13;;;6.95;;
75285;SDS011;63879;46.064;14.532;2023-02-12T17:30:46;17.33;;;6.50;;
75285;SDS011;63879;46.064;14.532;2023-02-12T17:33:13;13.25;;;7.15;;
75285;SDS011;63879;46.064;14.532;2023-02-12T17:35:38;15.73;;;10.48;;
75285;SDS011;63879;46.064;14.532;2023-02-12T17:38:04;13.20;;;8.02;;
75285;SDS011;63879;46.064;14.532;2023-02-12T17:40:30;15.57;;;10.45;;
75285;SDS011;63879;46.064;14.532;2023-02-12T17:42:55;15.07;;;8.17;;
75285;SDS011;63879;46.064;14.532;2023-02-12T17:45:22;14.15;;;9.43;;
75285;SDS011;63879;46.064;14.532;2023-02-12T17:47:47;17.83;;;9.07;;
75285;SDS011;63879;46.064;14.532;2023-02-12T17:50:14;16.85;;;9.05;;
75285;SDS011;63879;46.064;14.532;2023-02-12T17:52:40;16.38;;;9.55;;
75285;SDS011;63879;46.064;14.532;2023-02-12T17:55:06;16.83;;;9.10;;
75285;SDS011;63879;46.064;14.532;2023-02-12T17:57:31;15.68;;;8.90;;
75285;SDS011;63879;46.064;14.532;2023-02-12T17:59:57;15.13;;;9.85;;
75285;SDS011;63879;46.064;14.532;2023-02-12T18:02:22;14.20;;;9.35;;
75285;SDS011;63879;46.064;14.532;2023-02-12T18:04:48;22.88;;;12.70;;
75285;SDS011;63879;46.064;14.532;2023-02-12T18:07:13;23.00;;;12.05;;
75285;SDS011;63879;46.064;14.532;2023-02-12T18:09:39;22.80;;;12.60;;
75285;SDS011;63879;46.064;14.532;2023-02-12T18:12:04;25.90;;;12.97;;
75285;SDS011;63879;46.064;14.532;2023-02-12T18:14:30;28.88;;;14.88;;
75285;SDS011;63879;46.064;14.532;2023-02-12T18:16:56;27.92;;;13.55;;
75285;SDS011;63879;46.064;14.532;2023-02-12T18:19:23;24.65;;;14.90;;
75285;SDS011;63879;46.064;14.532;2023-02-12T18:21:49;29.00;;;15.65;;
75285;SDS011;63879;46.064;14.532;2023-02-12T18:24:15;28.67;;;15.73;;
75285;SDS011;63879;46.064;14.532;2023-02-12T18:26:40;24.50;;;13.63;;
75285;SDS011;63879;46.064;14.532;2023-02-12T18:29:05;28.77;;;17.00;;
75285;SDS011;63879;46.064;14.532;2023-02-12T18:31:31;25.85;;;14.45;;
75285;SDS011;63879;46.064;14.532;2023-02-12T18:33:59;29.10;;;15.63;;
75285;SDS011;63879;46.064;14.532;2023-02-12T18:36:25;27.92;;;15.50;;
75285;SDS011;63879;46.064;14.532;2023-02-12T18:38:50;37.45;;;16.48;;
75285;SDS011;63879;46.064;14.532;2023-02-12T18:41:21;33.75;;;20.70;;
75285;SDS011;63879;46.064;14.532;2023-02-12T18:48:45;36.47;;;22.95;;
75285;SDS011;63879;46.064;14.532;2023-02-12T18:51:15;42.42;;;21.15;;
75285;SDS011;63879;46.064;14.532;2023-02-12T18:53:54;31.50;;;17.45;;
75285;SDS011;63879;46.064;14.532;2023-02-12T18:56:25;42.55;;;22.30;;
75285;SDS011;63879;46.064;14.532;2023-02-12T18:58:58;39.50;;;21.83;;
75285;SDS011;63879;46.064;14.532;2023-02-12T19:01:25;33.50;;;18.33;;
75285;SDS011;63879;46.064;14.532;2023-02-12T19:03:52;35.92;;;19.75;;
75285;SDS011;63879;46.064;14.532;2023-02-12T19:06:23;44.47;;;24.90;;
75285;SDS011;63879;46.064;14.532;2023-02-12T19:08:52;45.17;;;25.17;;
75285;SDS011;63879;46.064;14.532;2023-02-12T19:11:18;47.83;;;26.05;;
75285;SDS011;63879;46.064;14.532;2023-02-12T19:13:43;47.75;;;26.90;;
75285;SDS011;63879;46.064;14.532;2023-02-12T19:16:10;41.73;;;22.03;;
75285;SDS011;63879;46.064;14.532;2023-02-12T19:18:37;43.30;;;25.65;;
75285;SDS011;63879;46.064;14.532;2023-02-12T19:21:06;44.60;;;25.55;;
75285;SDS011;63879;46.064;14.532;2023-02-12T19:23:32;35.42;;;19.65;;
75285;SDS011;63879;46.064;14.532;2023-02-12T19:26:04;39.73;;;24.17;;
75285;SDS011;63879;46.064;14.532;2023-02-12T19:28:30;43.33;;;24.25;;
75285;SDS011;63879;46.064;14.532;2023-02-12T19:30:56;39.42;;;21.15;;
75285;SDS011;63879;46.064;14.532;2023-02-12T19:33:21;41.03;;;24.67;;
75285;SDS011;63879;46.064;14.532;2023-02-12T19:35:49;38.13;;;24.05;;
75285;SDS011;63879;46.064;14.532;2023-02-12T19:40:42;39.15;;;21.88;;
75285;SDS011;63879;46.064;14.532;2023-02-12T19:43:08;35.58;;;22.25;;
75285;SDS011;63879;46.064;14.532;2023-02-12T19:45:33;37.65;;;21.77;;
75285;SDS011;63879;46.064;14.532;2023-02-12T19:47:59;35.45;;;21.25;;
75285;SDS011;63879;46.064;14.532;2023-02-12T19:50:24;36.97;;;20.10;;
75285;SDS011;63879;46.064;14.532;2023-02-12T19:52:49;39.97;;;22.63;;
75285;SDS011;63879;46.064;14.532;2023-02-12T19:55:15;38.08;;;22.92;;
75285;SDS011;63879;46.064;14.532;2023-02-12T19:57:40;35.37;;;21.10;;
75285;SDS011;63879;46.064;14.532;2023-02-12T20:00:06;31.73;;;19.65;;
75285;SDS011;63879;46.064;14.532;2023-02-12T20:02:32;30.83;;;19.40;;
75285;SDS011;63879;46.064;14.532;2023-02-12T20:04:57;33.03;;;20.27;;
75285;SDS011;63879;46.064;14.532;2023-02-12T20:07:26;34.55;;;19.90;;
75285;SDS011;63879;46.064;14.532;2023-02-12T20:09:51;35.67;;;19.67;;
75285;SDS011;63879;46.064;14.532;2023-02-12T20:12:17;28.70;;;17.77;;
75285;SDS011;63879;46.064;14.532;2023-02-12T20:14:42;34.45;;;17.98;;
75285;SDS011;63879;46.064;14.532;2023-02-12T20:17:11;36.60;;;22.25;;
75285;SDS011;63879;46.064;14.532;2023-02-12T20:19:44;30.40;;;19.52;;
75285;SDS011;63879;46.064;14.532;2023-02-12T20:22:09;36.30;;;19.00;;
75285;SDS011;63879;46.064;14.532;2023-02-12T20:24:34;33.90;;;20.23;;
75285;SDS011;63879;46.064;14.532;2023-02-12T20:27:00;36.15;;;20.58;;
75285;SDS011;63879;46.064;14.532;2023-02-12T20:29:26;38.45;;;21.58;;
75285;SDS011;63879;46.064;14.532;2023-02-12T20:31:52;35.30;;;21.95;;
75285;SDS011;63879;46.064;14.532;2023-02-12T20:34:18;40.08;;;22.13;;
75285;SDS011;63879;46.064;14.532;2023-02-12T20:36:44;35.05;;;22.17;;
75285;SDS011;63879;46.064;14.532;2023-02-12T20:39:11;35.70;;;21.17;;
75285;SDS011;63879;46.064;14.532;2023-02-12T20:41:39;37.70;;;19.98;;
75285;SDS011;63879;46.064;14.532;2023-02-12T20:44:05;33.35;;;19.60;;
75285;SDS011;63879;46.064;14.532;2023-02-12T20:46:32;36.00;;;22.65;;
75285;SDS011;63879;46.064;14.532;2023-02-12T20:49:00;36.30;;;21.27;;
75285;SDS011;63879;46.064;14.532;2023-02-12T20:51:26;37.03;;;22.83;;
75285;SDS011;63879;46.064;14.532;2023-02-12T20:53:51;38.53;;;20.02;;
75285;SDS011;63879;46.064;14.532;2023-02-12T20:56:20;37.28;;;20.83;;
75285;SDS011;63879;46.064;14.532;2023-02-12T20:58:47;37.95;;;20.80;;
75285;SDS011;63879;46.064;14.532;2023-02-12T21:01:14;42.80;;;23.20;;
75285;SDS011;63879;46.064;14.532;2023-02-12T21:03:41;50.58;;;27.13;;
75285;SDS011;63879;46.064;14.532;2023-02-12T21:06:06;48.20;;;25.25;;
75285;SDS011;63879;46.064;14.532;2023-02-12T21:08:34;50.65;;;28.48;;
75285;SDS011;63879;46.064;14.532;2023-02-12T21:11:01;47.38;;;25.35;;
75285;SDS011;63879;46.064;14.532;2023-02-12T21:13:32;46.65;;;22.02;;
75285;SDS011;63879;46.064;14.532;2023-02-12T21:16:04;40.70;;;24.23;;
75285;SDS011;63879;46.064;14.532;2023-02-12T21:18:34;43.03;;;21.88;;
75285;SDS011;63879;46.064;14.532;2023-02-12T21:21:03;34.15;;;21.98;;
75285;SDS011;63879;46.064;14.532;2023-02-12T21:23:30;34.95;;;21.48;;
75285;SDS011;63879;46.064;14.532;2023-02-12T21:26:15;39.33;;;20.48;;
75285;SDS011;63879;46.064;14.532;2023-02-12T21:28:42;37.08;;;17.70;;
75285;SDS011;63879;46.064;14.532;2023-02-12T21:31:10;34.17;;;20.08;;
75285;SDS011;63879;46.064;14.532;2023-02-12T21:33:38;45.53;;;23.98;;
75285;SDS011;63879;46.064;14.532;2023-02-12T21:36:08;39.58;;;23.77;;
75285;SDS011;63879;46.064;14.532;2023-02-12T21:38:37;39.65;;;22.77;;
75285;SDS011;63879;46.064;14.532;2023-02-12T21:41:14;45.63;;;22.85;;
75285;SDS011;63879;46.064;14.532;2023-02-12T21:43:41;43.28;;;22.13;;
75285;SDS011;63879;46.064;14.532;2023-02-12T21:46:08;42.65;;;21.70;;
75285;SDS011;63879;46.064;14.532;2023-02-12T21:48:34;44.35;;;22.38;;
75285;SDS011;63879;46.064;14.532;2023-02-12T21:50:59;46.83;;;24.08;;
75285;SDS011;63879;46.064;14.532;2023-02-12T21:53:26;37.50;;;21.88;;
75285;SDS011;63879;46.064;14.532;2023-02-12T21:55:52;42.65;;;23.10;;
75285;SDS011;63879;46.064;14.532;2023-02-12T21:58:17;37.53;;;22.35;;
